Time;durP1;ratioP1;P1;durP2;ratioP2;P2;SDS_P1;SDS_P2;PMS_P1;PMS_P2;Temp;Humidity;BMP_temperature;BMP_pressure;BME280_temperature;BME280_humidity;BME280_pressure;Samples;Min_cycle;Max_cycle;Signal;HPM_P1;HPM_P2
2022/09/30 00:01:08;;;;;;;;;;;19.50;99.90;;;;;;4966191;28;19935;-61
2022/09/30 00:03:38;;;;;;;;;;;19.40;99.90;;;;;;4962187;28;19946;-62
2022/09/30 00:06:05;;;;;;;;;;;19.40;99.90;;;;;;4965826;28;19931;-62
2022/09/30 00:08:38;;;;;;;;;;;19.40;99.90;;;;;;4957121;28;20310;-63
2022/09/30 00:11:06;;;;;;;;;;;19.40;99.90;;;;;;4966562;28;19930;-64
2022/09/30 00:13:35;;;;;;;;;;;19.40;99.90;;;;;;4965539;28;20305;-63
2022/09/30 00:16:03;;;;;;;;;;;19.40;99.90;;;;;;4970013;28;19937;-61
2022/09/30 00:18:30;;;;;;;;;;;19.40;99.90;;;;;;4969277;28;19931;-60
2022/09/30 00:20:57;;;;;;;;;;;19.40;99.90;;;;;;4961951;28;20739;-61
2022/09/30 00:23:24;;;;;;;;;;;19.40;99.90;;;;;;4975010;28;19927;-63
2022/09/30 00:25:56;;;;;;;;;;;19.40;99.90;;;;;;4974369;28;19930;-62
2022/09/30 00:28:23;;;;;;;;;;;19.40;99.90;;;;;;4982899;28;19937;-63
2022/09/30 00:30:50;;;;;;;;;;;19.40;99.90;;;;;;4976427;28;19937;-62
2022/09/30 00:33:17;;;;;;;;;;;19.40;99.90;;;;;;4976891;28;20328;-62
2022/09/30 00:35:45;;;;;;;;;;;19.40;99.90;;;;;;4967998;28;19925;-62
2022/09/30 00:38:12;;;;;;;;;;;19.30;99.90;;;;;;4967590;28;19930;-62
2022/09/30 00:40:39;;;;;;;;;;;19.30;99.90;;;;;;4974017;28;19926;-60
2022/09/30 00:43:14;;;;;;;;;;;19.30;99.90;;;;;;4989097;28;19953;-62
2022/09/30 00:45:48;;;;;;;;;;;19.30;99.90;;;;;;4968438;28;19945;-62
2022/09/30 00:48:19;;;;;;;;;;;19.30;99.90;;;;;;4965217;28;19926;-62
2022/09/30 00:50:48;;;;;;;;;;;19.30;99.90;;;;;;4967316;28;19937;-62
2022/09/30 00:53:15;;;;;;;;;;;19.30;99.90;;;;;;4973416;28;20415;-62
2022/09/30 00:55:48;;;;;;;;;;;19.30;99.90;;;;;;4972009;28;20321;-63
2022/09/30 00:58:36;;;;;;;;;;;19.30;99.90;;;;;;4967470;28;20409;-63
2022/09/30 01:01:03;;;;;;;;;;;19.30;99.90;;;;;;4970813;28;19926;-60
2022/09/30 01:03:32;;;;;;;;;;;19.30;99.90;;;;;;4968403;28;19934;-64
2022/09/30 01:06:00;;;;;;;;;;;19.30;99.90;;;;;;4979341;28;19929;-60
2022/09/30 01:08:29;;;;;;;;;;;19.30;99.90;;;;;;4966660;28;19934;-63
2022/09/30 01:10:56;;;;;;;;;;;19.30;99.90;;;;;;4968454;28;19937;-62
2022/09/30 01:13:27;;;;;;;;;;;19.20;99.90;;;;;;4973064;28;19930;-60
2022/09/30 01:16:09;;;;;;;;;;;19.20;99.90;;;;;;4974696;28;19934;-61
2022/09/30 01:18:36;;;;;;;;;;;19.20;99.90;;;;;;4959372;28;20338;-64
2022/09/30 01:21:18;;;;;;;;;;;19.20;99.90;;;;;;4973978;28;19937;-64
2022/09/30 01:23:58;;;;;;;;;;;19.30;99.90;;;;;;4963020;28;20417;-63
2022/09/30 01:26:43;;;;;;;;;;;19.20;99.90;;;;;;4984619;28;20393;-63
2022/09/30 01:29:16;;;;;;;;;;;19.20;99.90;;;;;;4969018;28;20398;-62
2022/09/30 01:31:55;;;;;;;;;;;19.20;99.90;;;;;;4969827;28;20310;-60
2022/09/30 01:34:51;;;;;;;;;;;19.20;99.90;;;;;;4980127;28;20364;-62
2022/09/30 01:37:28;;;;;;;;;;;19.20;99.90;;;;;;4971255;28;19941;-61
2022/09/30 01:40:07;;;;;;;;;;;19.20;99.90;;;;;;4977932;28;19930;-61
2022/09/30 01:42:37;;;;;;;;;;;19.20;99.90;;;;;;4971698;28;20409;-59
2022/09/30 01:45:13;;;;;;;;;;;19.20;99.90;;;;;;4986020;28;19930;-60
2022/09/30 01:47:51;;;;;;;;;;;19.20;99.90;;;;;;4970849;28;19926;-62
2022/09/30 01:50:20;;;;;;;;;;;19.20;99.90;;;;;;4969062;28;19942;-63
2022/09/30 01:53:05;;;;;;;;;;;19.10;99.90;;;;;;4980413;28;19949;-61
2022/09/30 01:55:36;;;;;;;;;;;19.20;99.90;;;;;;4986407;28;19937;-62
2022/09/30 01:58:27;;;;;;;;;;;19.20;99.90;;;;;;4978883;28;19926;-64
2022/09/30 02:00:58;;;;;;;;;;;19.10;99.90;;;;;;4976645;28;19926;-63
2022/09/30 02:03:46;;;;;;;;;;;19.10;99.90;;;;;;4966819;28;20406;-60
2022/09/30 02:06:22;;;;;;;;;;;19.10;99.90;;;;;;4970016;28;19926;-64
2022/09/30 02:08:57;;;;;;;;;;;19.10;99.90;;;;;;4972913;28;19930;-63
2022/09/30 02:11:26;;;;;;;;;;;19.10;99.90;;;;;;4996929;28;19933;-63
2022/09/30 02:13:59;;;;;;;;;;;19.10;99.90;;;;;;4975963;28;19937;-63
2022/09/30 02:16:38;;;;;;;;;;;19.10;99.90;;;;;;4973077;28;20317;-61
2022/09/30 02:19:15;;;;;;;;;;;19.10;99.90;;;;;;4973888;28;19968;-61
2022/09/30 02:21:43;;;;;;;;;;;19.10;99.90;;;;;;4974823;28;19930;-61
2022/09/30 02:24:13;;;;;;;;;;;19.10;99.90;;;;;;4981333;28;19930;-61
2022/09/30 02:26:42;;;;;;;;;;;19.10;99.90;;;;;;4974597;28;19941;-61
2022/09/30 02:29:15;;;;;;;;;;;19.10;99.90;;;;;;4989661;28;19926;-54
2022/09/30 02:31:43;;;;;;;;;;;19.10;99.90;;;;;;4968905;28;20281;-62
2022/09/30 02:34:13;;;;;;;;;;;19.00;99.90;;;;;;4979804;28;19930;-58
2022/09/30 02:36:41;;;;;;;;;;;19.00;99.90;;;;;;4968139;28;19949;-61
2022/09/30 02:39:28;;;;;;;;;;;19.00;99.90;;;;;;4966030;28;19941;-59
2022/09/30 02:41:59;;;;;;;;;;;19.00;99.90;;;;;;4963689;28;19945;-62
2022/09/30 02:44:26;;;;;;;;;;;19.00;99.90;;;;;;4975170;28;19938;-61
2022/09/30 02:47:10;;;;;;;;;;;19.00;99.90;;;;;;4969595;28;19926;-63
2022/09/30 02:49:40;;;;;;;;;;;19.00;99.90;;;;;;4967271;28;19944;-63
2022/09/30 02:52:26;;;;;;;;;;;19.00;99.90;;;;;;4969055;28;19930;-63
2022/09/30 02:54:59;;;;;;;;;;;19.00;99.90;;;;;;4963041;28;19930;-60
2022/09/30 02:57:32;;;;;;;;;;;19.00;99.90;;;;;;4969297;28;19930;-62
2022/09/30 02:59:59;;;;;;;;;;;19.00;99.90;;;;;;4977521;28;19926;-62
2022/09/30 03:02:29;;;;;;;;;;;19.00;99.90;;;;;;4969116;28;20311;-61
2022/09/30 03:04:56;;;;;;;;;;;19.00;99.90;;;;;;4962216;28;19937;-60
2022/09/30 03:07:24;;;;;;;;;;;19.00;99.90;;;;;;4969240;28;20382;-63
2022/09/30 03:09:54;;;;;;;;;;;19.00;99.90;;;;;;4972391;28;19930;-62
2022/09/30 03:12:38;;;;;;;;;;;19.00;99.90;;;;;;4965245;28;19930;-61
2022/09/30 03:15:17;;;;;;;;;;;19.00;99.90;;;;;;4978794;28;20310;-62
2022/09/30 03:17:44;;;;;;;;;;;19.00;99.90;;;;;;4968107;28;19930;-57
2022/09/30 03:20:14;;;;;;;;;;;19.00;99.90;;;;;;4967288;28;19931;-61
2022/09/30 03:23:00;;;;;;;;;;;19.00;99.90;;;;;;4974433;28;19931;-62
2022/09/30 03:25:36;;;;;;;;;;;19.00;99.90;;;;;;4976310;28;20425;-62
2022/09/30 03:28:03;;;;;;;;;;;19.00;99.90;;;;;;4965356;28;20149;-62
2022/09/30 03:30:32;;;;;;;;;;;19.00;99.90;;;;;;4947072;28;19930;-63
2022/09/30 03:33:07;;;;;;;;;;;19.10;99.90;;;;;;4969683;28;19938;-63
2022/09/30 03:35:37;;;;;;;;;;;19.10;99.90;;;;;;4957503;28;19926;-63
2022/09/30 03:38:07;;;;;;;;;;;19.10;99.90;;;;;;4970632;28;19926;-60
2022/09/30 03:40:40;;;;;;;;;;;19.10;99.90;;;;;;4988435;28;20298;-64
2022/09/30 03:43:11;;;;;;;;;;;19.10;99.90;;;;;;4971347;28;20391;-61
2022/09/30 03:45:40;;;;;;;;;;;19.10;99.90;;;;;;4974839;28;19930;-63
2022/09/30 03:48:09;;;;;;;;;;;19.10;99.90;;;;;;4980855;28;20474;-61
2022/09/30 03:50:37;;;;;;;;;;;19.10;99.90;;;;;;4977045;28;19937;-61
2022/09/30 03:53:08;;;;;;;;;;;19.20;99.90;;;;;;4964634;28;19930;-61
2022/09/30 03:55:42;;;;;;;;;;;19.40;99.90;;;;;;4973063;28;19930;-63
2022/09/30 03:58:09;;;;;;;;;;;19.70;99.90;;;;;;4962664;28;19930;-61
2022/09/30 04:00:37;;;;;;;;;;;20.00;99.90;;;;;;4990138;28;20342;-61
2022/09/30 04:03:04;;;;;;;;;;;20.30;99.90;;;;;;4972451;28;19941;-60
2022/09/30 04:05:31;;;;;;;;;;;20.50;99.90;;;;;;4968391;28;19937;-60
2022/09/30 04:07:58;;;;;;;;;;;20.70;99.90;;;;;;4966934;28;19969;-64
2022/09/30 04:10:25;;;;;;;;;;;21.00;99.90;;;;;;4968844;28;19937;-63
2022/09/30 04:12:53;;;;;;;;;;;21.20;99.90;;;;;;4969367;28;19933;-62
2022/09/30 04:15:20;;;;;;;;;;;21.40;99.90;;;;;;4966728;28;19934;-62
2022/09/30 04:17:48;;;;;;;;;;;21.50;99.90;;;;;;4968282;28;19937;-61
2022/09/30 04:20:15;;;;;;;;;;;21.60;99.90;;;;;;4973688;28;19930;-62
2022/09/30 04:22:42;;;;;;;;;;;21.60;99.90;;;;;;4969115;28;19937;-62
2022/09/30 04:25:09;;;;;;;;;;;21.60;99.90;;;;;;4964880;28;19938;-64
2022/09/30 04:27:37;;;;;;;;;;;21.60;99.90;;;;;;4975021;28;19934;-64
2022/09/30 04:30:04;;;;;;;;;;;21.60;99.90;;;;;;4971705;28;20012;-65
2022/09/30 04:32:31;;;;;;;;;;;21.60;99.90;;;;;;4971956;28;19930;-65
2022/09/30 04:34:58;;;;;;;;;;;21.60;99.90;;;;;;4974711;28;19930;-67
2022/09/30 04:37:25;;;;;;;;;;;21.60;99.90;;;;;;4979865;28;19926;-63
2022/09/30 04:39:52;;;;;;;;;;;21.50;99.90;;;;;;4985825;28;19930;-63
2022/09/30 04:42:19;;;;;;;;;;;21.50;99.90;;;;;;4975961;28;19937;-63
2022/09/30 04:44:48;;;;;;;;;;;21.50;99.90;;;;;;4969898;28;19950;-59
2022/09/30 04:47:15;;;;;;;;;;;21.40;99.90;;;;;;4969103;28;19926;-62
2022/09/30 04:49:42;;;;;;;;;;;21.40;99.90;;;;;;4968938;28;19930;-66
2022/09/30 04:52:09;;;;;;;;;;;21.40;99.90;;;;;;4985178;28;19948;-62
2022/09/30 04:54:36;;;;;;;;;;;21.30;99.90;;;;;;4975811;28;19937;-64
2022/09/30 04:57:03;;;;;;;;;;;21.30;99.90;;;;;;4977502;28;19926;-62
2022/09/30 04:59:32;;;;;;;;;;;21.30;99.90;;;;;;4982852;28;20271;-62
2022/09/30 05:02:00;;;;;;;;;;;21.20;99.90;;;;;;4973566;28;19926;-66
2022/09/30 05:04:28;;;;;;;;;;;21.20;99.90;;;;;;4976730;28;19941;-61
2022/09/30 05:06:56;;;;;;;;;;;21.20;99.90;;;;;;4971498;28;19937;-62
2022/09/30 05:09:23;;;;;;;;;;;21.20;99.90;;;;;;4965520;28;19930;-62
2022/09/30 05:11:50;;;;;;;;;;;21.10;99.90;;;;;;4961211;28;19930;-62
2022/09/30 05:14:18;;;;;;;;;;;21.10;99.90;;;;;;4969494;28;19926;-63
2022/09/30 05:16:45;;;;;;;;;;;21.10;99.90;;;;;;4972355;28;19950;-61
2022/09/30 05:19:12;;;;;;;;;;;21.10;99.90;;;;;;4973846;28;20406;-63
2022/09/30 05:21:40;;;;;;;;;;;21.00;99.90;;;;;;4974426;28;20378;-62
2022/09/30 05:24:08;;;;;;;;;;;21.00;99.90;;;;;;4969439;28;20329;-59
2022/09/30 05:26:36;;;;;;;;;;;21.00;99.90;;;;;;4967605;28;19945;-63
2022/09/30 05:29:03;;;;;;;;;;;21.00;99.90;;;;;;4985262;28;19929;-64
2022/09/30 05:31:30;;;;;;;;;;;21.00;99.90;;;;;;4962918;28;20346;-65
2022/09/30 05:33:57;;;;;;;;;;;21.00;99.90;;;;;;4957663;28;20287;-62
2022/09/30 05:36:24;;;;;;;;;;;20.90;99.90;;;;;;4971956;28;19933;-62
2022/09/30 05:38:52;;;;;;;;;;;20.90;99.90;;;;;;4967461;28;19958;-62
2022/09/30 05:41:19;;;;;;;;;;;20.90;99.90;;;;;;4968871;28;20485;-62
2022/09/30 05:43:47;;;;;;;;;;;20.90;99.90;;;;;;4966319;28;19930;-61
2022/09/30 05:46:15;;;;;;;;;;;20.90;99.90;;;;;;4966299;28;19937;-61
2022/09/30 05:48:42;;;;;;;;;;;20.80;99.90;;;;;;4966379;28;19949;-62
2022/09/30 05:51:10;;;;;;;;;;;20.80;99.90;;;;;;4973139;28;20394;-58
2022/09/30 05:53:37;;;;;;;;;;;20.70;99.90;;;;;;4976436;28;19929;-62
2022/09/30 05:56:05;;;;;;;;;;;20.70;99.90;;;;;;4975843;28;19930;-62
2022/09/30 05:58:32;;;;;;;;;;;20.70;99.90;;;;;;4969832;28;19933;-62
2022/09/30 06:01:05;;;;;;;;;;;20.70;99.90;;;;;;4974346;28;19926;-62
2022/09/30 06:03:39;;;;;;;;;;;20.60;99.90;;;;;;4971251;28;19926;-60
2022/09/30 06:06:06;;;;;;;;;;;20.60;99.90;;;;;;4973345;28;19930;-63
2022/09/30 06:08:33;;;;;;;;;;;20.70;99.90;;;;;;4964888;28;19933;-61
2022/09/30 06:11:06;;;;;;;;;;;20.60;99.90;;;;;;4966256;28;19941;-59
2022/09/30 06:13:33;;;;;;;;;;;20.60;99.90;;;;;;4968540;28;19926;-56
2022/09/30 06:16:01;;;;;;;;;;;20.60;99.90;;;;;;4968481;28;19930;-60
2022/09/30 06:18:28;;;;;;;;;;;20.50;99.90;;;;;;4971138;28;19934;-61
2022/09/30 06:20:56;;;;;;;;;;;20.50;99.90;;;;;;4973022;28;19926;-61
2022/09/30 06:23:23;;;;;;;;;;;20.50;99.90;;;;;;4964705;28;19931;-58
2022/09/30 06:25:54;;;;;;;;;;;20.50;99.90;;;;;;4965751;28;19934;-62
2022/09/30 06:28:22;;;;;;;;;;;20.50;99.90;;;;;;4967052;28;19930;-61
2022/09/30 06:30:49;;;;;;;;;;;20.50;99.90;;;;;;4971185;28;19933;-63
2022/09/30 06:33:16;;;;;;;;;;;20.50;99.90;;;;;;4969324;28;20317;-62
2022/09/30 06:35:46;;;;;;;;;;;20.50;99.90;;;;;;5009539;28;19930;-60
2022/09/30 06:38:16;;;;;;;;;;;20.40;99.90;;;;;;4976127;28;19926;-63
2022/09/30 06:40:45;;;;;;;;;;;20.40;99.90;;;;;;4976512;28;19937;-64
2022/09/30 06:43:12;;;;;;;;;;;20.40;99.90;;;;;;4969684;28;19930;-64
2022/09/30 06:45:39;;;;;;;;;;;20.40;99.90;;;;;;4977073;28;19933;-65
2022/09/30 06:48:09;;;;;;;;;;;20.40;99.90;;;;;;4978204;28;20394;-62
2022/09/30 06:50:38;;;;;;;;;;;20.30;99.90;;;;;;4963814;28;19930;-63
2022/09/30 06:53:07;;;;;;;;;;;20.40;99.90;;;;;;4984259;28;19930;-64
2022/09/30 06:55:38;;;;;;;;;;;20.40;99.90;;;;;;4973770;28;19926;-61
2022/09/30 06:58:10;;;;;;;;;;;20.30;99.90;;;;;;4966933;28;20322;-62
2022/09/30 07:00:37;;;;;;;;;;;19.60;99.90;;;;;;4962598;28;19934;-63
2022/09/30 07:03:08;;;;;;;;;;;18.70;99.90;;;;;;4970946;28;19965;-63
2022/09/30 07:05:36;;;;;;;;;;;18.40;99.90;;;;;;4970450;28;20389;-63
2022/09/30 07:08:03;;;;;;;;;;;18.60;99.90;;;;;;4971163;28;19945;-63
2022/09/30 07:10:30;;;;;;;;;;;18.90;99.90;;;;;;4982507;28;19929;-64
2022/09/30 07:13:01;;;;;;;;;;;19.20;99.90;;;;;;4963915;28;19945;-65
2022/09/30 07:15:28;;;;;;;;;;;19.40;99.90;;;;;;4967361;28;19930;-65
2022/09/30 07:17:55;;;;;;;;;;;19.60;99.90;;;;;;4973168;28;19953;-65
2022/09/30 07:20:22;;;;;;;;;;;19.80;99.90;;;;;;4974817;28;20503;-64
2022/09/30 07:22:50;;;;;;;;;;;19.90;99.90;;;;;;4986700;28;19930;-61
2022/09/30 07:25:17;;;;;;;;;;;20.00;99.90;;;;;;4979162;28;19934;-60
2022/09/30 07:27:45;;;;;;;;;;;20.20;99.90;;;;;;4980854;28;19930;-59
2022/09/30 07:30:12;;;;;;;;;;;20.40;99.90;;;;;;4984400;28;19927;-57
2022/09/30 07:32:52;;;;;;;;;;;20.50;99.90;;;;;;4975382;28;19937;-59
2022/09/30 07:35:19;;;;;;;;;;;20.50;99.90;;;;;;4988266;28;19949;-61
2022/09/30 07:37:47;;;;;;;;;;;20.60;99.90;;;;;;4969949;28;20298;-59
2022/09/30 07:40:14;;;;;;;;;;;20.60;99.90;;;;;;4990199;28;19930;-61
2022/09/30 07:42:44;;;;;;;;;;;20.70;99.90;;;;;;4963556;28;19934;-62
2022/09/30 07:45:15;;;;;;;;;;;20.60;99.90;;;;;;4967099;28;19949;-61
2022/09/30 07:47:42;;;;;;;;;;;20.60;99.90;;;;;;4969626;28;19926;-61
2022/09/30 07:50:12;;;;;;;;;;;20.70;99.90;;;;;;4968031;28;19934;-63
2022/09/30 07:52:39;;;;;;;;;;;20.60;99.90;;;;;;4977335;28;19937;-63
2022/09/30 07:55:06;;;;;;;;;;;20.60;99.90;;;;;;4978304;28;20321;-60
2022/09/30 07:57:33;;;;;;;;;;;20.60;99.90;;;;;;4975263;28;20413;-63
2022/09/30 08:00:00;;;;;;;;;;;20.70;99.90;;;;;;4975838;28;20256;-59
2022/09/30 08:02:48;;;;;;;;;;;20.60;99.90;;;;;;4968923;28;20271;-64
2022/09/30 08:05:15;;;;;;;;;;;20.70;99.90;;;;;;4966872;28;20224;-63
2022/09/30 08:07:42;;;;;;;;;;;20.70;99.90;;;;;;4967269;28;19933;-64
2022/09/30 08:10:09;;;;;;;;;;;20.80;99.90;;;;;;4985538;28;20256;-63
2022/09/30 08:12:36;;;;;;;;;;;21.00;99.90;;;;;;4976415;28;19929;-64
2022/09/30 08:15:05;;;;;;;;;;;21.10;99.90;;;;;;4964388;28;19949;-64
2022/09/30 08:17:32;;;;;;;;;;;21.20;99.90;;;;;;4968149;28;19934;-64
2022/09/30 08:20:00;;;;;;;;;;;21.30;99.90;;;;;;4976338;28;19934;-65
2022/09/30 08:22:27;;;;;;;;;;;21.40;99.90;;;;;;4968526;28;19930;-64
2022/09/30 08:24:54;;;;;;;;;;;21.50;99.90;;;;;;4971164;28;19926;-62
2022/09/30 08:27:21;;;;;;;;;;;21.60;99.90;;;;;;4968230;28;19931;-63
2022/09/30 08:29:48;;;;;;;;;;;21.70;99.90;;;;;;4976908;28;19930;-64
2022/09/30 08:32:22;;;;;;;;;;;21.70;99.90;;;;;;4984243;28;19934;-65
2022/09/30 08:34:49;;;;;;;;;;;21.80;99.90;;;;;;4986137;28;19930;-63
2022/09/30 08:37:17;;;;;;;;;;;21.80;99.90;;;;;;4978295;28;19941;-65
2022/09/30 08:39:45;;;;;;;;;;;21.80;99.90;;;;;;4971459;28;20417;-67
2022/09/30 08:42:28;;;;;;;;;;;21.70;99.90;;;;;;4978652;28;19940;-61
2022/09/30 08:45:24;;;;;;;;;;;21.70;99.90;;;;;;4968046;28;20414;-65
2022/09/30 08:48:10;;;;;;;;;;;21.70;99.90;;;;;;4947037;28;19954;-66
2022/09/30 08:50:56;;;;;;;;;;;21.70;99.90;;;;;;4991327;28;19945;-65
2022/09/30 08:53:35;;;;;;;;;;;21.70;99.90;;;;;;4990096;28;19930;-66
2022/09/30 08:56:02;;;;;;;;;;;21.70;99.90;;;;;;4974639;28;20119;-66
2022/09/30 08:58:35;;;;;;;;;;;21.70;99.90;;;;;;4991903;28;19937;-66
2022/09/30 09:01:13;;;;;;;;;;;21.70;99.90;;;;;;4969782;28;19930;-68
2022/09/30 09:03:41;;;;;;;;;;;21.70;99.90;;;;;;4968026;28;19941;-66
2022/09/30 09:06:27;;;;;;;;;;;21.70;99.90;;;;;;4964134;28;19938;-65
2022/09/30 09:09:13;;;;;;;;;;;21.60;99.90;;;;;;4990759;28;19933;-65
2022/09/30 09:12:13;;;;;;;;;;;21.60;99.90;;;;;;4970924;28;19930;-63
2022/09/30 09:14:55;;;;;;;;;;;21.60;99.90;;;;;;4947196;28;19926;-65
2022/09/30 09:17:28;;;;;;;;;;;21.50;99.90;;;;;;4988028;28;19930;-66
2022/09/30 09:20:01;;;;;;;;;;;21.40;99.90;;;;;;4968002;28;19930;-65
2022/09/30 09:22:29;;;;;;;;;;;21.40;99.90;;;;;;4967222;28;19941;-64
2022/09/30 09:24:56;;;;;;;;;;;21.30;99.90;;;;;;4979424;28;20401;-65
2022/09/30 09:27:59;;;;;;;;;;;21.30;99.90;;;;;;4975579;28;20420;-62
2022/09/30 09:30:33;;;;;;;;;;;21.30;99.90;;;;;;4919410;29;20407;-64
2022/09/30 09:33:10;;;;;;;;;;;21.20;99.90;;;;;;4962750;28;19930;-63
2022/09/30 09:35:40;;;;;;;;;;;21.20;99.90;;;;;;4972070;28;20353;-65
2022/09/30 09:38:27;;;;;;;;;;;21.20;99.90;;;;;;4971323;28;19946;-66
2022/09/30 09:41:03;;;;;;;;;;;21.10;99.90;;;;;;4977838;28;19930;-69
2022/09/30 09:43:44;;;;;;;;;;;21.10;99.90;;;;;;4970852;28;19926;-69
2022/09/30 09:46:24;;;;;;;;;;;21.10;99.90;;;;;;4970881;28;19929;-69
2022/09/30 09:49:10;;;;;;;;;;;21.20;99.90;;;;;;4969879;28;20406;-69
2022/09/30 09:51:50;;;;;;;;;;;21.20;99.90;;;;;;4974280;28;19925;-70
2022/09/30 09:54:18;;;;;;;;;;;21.10;99.90;;;;;;4996180;28;19933;-71
2022/09/30 09:56:45;;;;;;;;;;;21.10;99.90;;;;;;4981051;28;19930;-66
2022/09/30 09:59:14;;;;;;;;;;;21.10;99.90;;;;;;4985263;28;19930;-68
2022/09/30 10:01:46;;;;;;;;;;;21.10;99.90;;;;;;4986608;28;19926;-64
2022/09/30 10:04:17;;;;;;;;;;;21.00;99.90;;;;;;4980915;28;19933;-64
2022/09/30 10:06:56;;;;;;;;;;;21.00;99.90;;;;;;4975564;28;19940;-67
2022/09/30 10:09:25;;;;;;;;;;;21.00;99.90;;;;;;4966092;28;20017;-64
2022/09/30 10:12:04;;;;;;;;;;;21.00;99.90;;;;;;4967833;28;19930;-67
2022/09/30 10:14:36;;;;;;;;;;;21.00;99.90;;;;;;4973342;28;19937;-66
2022/09/30 10:17:04;;;;;;;;;;;20.90;99.90;;;;;;4986165;28;19930;-66
2022/09/30 10:19:33;;;;;;;;;;;21.00;99.90;;;;;;4969768;28;19930;-65
2022/09/30 10:22:06;;;;;;;;;;;21.00;99.90;;;;;;4972689;28;19934;-65
2022/09/30 10:24:34;;;;;;;;;;;21.00;99.90;;;;;;4974610;28;19936;-64
2022/09/30 10:27:01;;;;;;;;;;;21.00;99.90;;;;;;4975632;28;20010;-63
2022/09/30 10:29:34;;;;;;;;;;;21.00;99.90;;;;;;4972352;28;20654;-65
2022/09/30 10:32:05;;;;;;;;;;;21.10;99.90;;;;;;4966395;28;19930;-64
2022/09/30 10:34:36;;;;;;;;;;;21.10;99.90;;;;;;4976268;28;19934;-65
2022/09/30 10:37:08;;;;;;;;;;;21.10;99.90;;;;;;4971078;28;20394;-64
2022/09/30 10:39:37;;;;;;;;;;;20.40;99.90;;;;;;4969551;28;19941;-64
2022/09/30 10:42:20;;;;;;;;;;;20.10;99.90;;;;;;4964980;28;19930;-64
2022/09/30 10:44:56;;;;;;;;;;;20.40;99.90;;;;;;4978535;28;19929;-63
2022/09/30 10:47:25;;;;;;;;;;;20.70;99.90;;;;;;4967170;28;19930;-62
2022/09/30 10:50:11;;;;;;;;;;;21.00;99.90;;;;;;4976294;28;19930;-61
2022/09/30 10:52:58;;;;;;;;;;;21.10;99.90;;;;;;4967181;28;20318;-62
2022/09/30 10:55:28;;;;;;;;;;;21.30;99.90;;;;;;4975026;28;19926;-64
2022/09/30 10:57:57;;;;;;;;;;;21.40;99.90;;;;;;4951584;28;19930;-65
2022/09/30 11:00:24;;;;;;;;;;;21.40;99.90;;;;;;4984887;28;19926;-67
2022/09/30 11:03:04;;;;;;;;;;;21.40;99.90;;;;;;4983439;28;19937;-65
2022/09/30 11:05:38;;;;;;;;;;;21.50;99.90;;;;;;4972615;28;19929;-67
2022/09/30 11:08:09;;;;;;;;;;;21.50;99.90;;;;;;4969591;28;19937;-65
2022/09/30 11:10:44;;;;;;;;;;;21.50;99.90;;;;;;4968796;28;19978;-66
2022/09/30 11:13:36;;;;;;;;;;;21.50;99.90;;;;;;4970972;28;19953;-65
2022/09/30 11:16:18;;;;;;;;;;;21.40;99.90;;;;;;4971915;28;19926;-61
2022/09/30 11:18:48;;;;;;;;;;;20.90;99.90;;;;;;4970064;28;19949;-61
2022/09/30 11:21:24;;;;;;;;;;;20.60;99.90;;;;;;4976415;28;19934;-63
2022/09/30 11:23:59;;;;;;;;;;;20.50;99.90;;;;;;4972772;28;20400;-65
2022/09/30 11:26:34;;;;;;;;;;;20.40;99.90;;;;;;4967008;28;19931;-68
2022/09/30 11:29:13;;;;;;;;;;;20.60;99.90;;;;;;4966110;28;19934;-63
2022/09/30 11:31:47;;;;;;;;;;;20.80;99.90;;;;;;4975354;28;20313;-62
2022/09/30 11:34:25;;;;;;;;;;;20.90;99.90;;;;;;4960230;28;20228;-63
2022/09/30 11:36:59;;;;;;;;;;;20.90;99.90;;;;;;4966765;28;19930;-66
2022/09/30 11:39:26;;;;;;;;;;;20.90;99.90;;;;;;4969187;28;19938;-67
2022/09/30 11:42:00;;;;;;;;;;;20.90;99.90;;;;;;4964487;28;20441;-64
2022/09/30 11:44:27;;;;;;;;;;;21.00;99.90;;;;;;4976076;28;19930;-64
2022/09/30 11:47:09;;;;;;;;;;;21.00;99.90;;;;;;4968279;28;19933;-63
2022/09/30 11:49:58;;;;;;;;;;;21.00;99.90;;;;;;4969162;28;19953;-62
2022/09/30 11:52:28;;;;;;;;;;;21.10;99.90;;;;;;4975203;28;19925;-62
2022/09/30 11:54:58;;;;;;;;;;;21.10;99.90;;;;;;4968269;28;19934;-65
2022/09/30 11:57:25;;;;;;;;;;;21.10;99.90;;;;;;4979080;28;19925;-63
2022/09/30 11:59:52;;;;;;;;;;;21.10;99.90;;;;;;4973442;28;19960;-64
2022/09/30 12:02:32;;;;;;;;;;;21.20;99.90;;;;;;4975470;28;19944;-59
2022/09/30 12:05:05;;;;;;;;;;;21.20;99.90;;;;;;4986548;28;19937;-64
2022/09/30 12:07:43;;;;;;;;;;;21.20;99.90;;;;;;4980867;28;19949;-65
2022/09/30 12:10:40;;;;;;;;;;;21.20;99.90;;;;;;4989845;28;19934;-62
2022/09/30 12:13:12;;;;;;;;;;;21.20;99.90;;;;;;4950737;28;19931;-62
2022/09/30 12:15:43;;;;;;;;;;;21.10;99.90;;;;;;4961439;28;20310;-59
2022/09/30 12:18:15;;;;;;;;;;;21.20;99.90;;;;;;4960757;28;19933;-60
2022/09/30 12:20:48;;;;;;;;;;;21.10;99.90;;;;;;4976685;28;19937;-63
2022/09/30 12:23:30;;;;;;;;;;;21.00;99.90;;;;;;4971839;28;19926;-57
2022/09/30 12:25:58;;;;;;;;;;;20.90;99.90;;;;;;4977252;28;19934;-61
2022/09/30 12:31:19;;;;;;;;;;;21.00;99.90;;;;;;4982163;28;19984;-61
2022/09/30 12:34:04;;;;;;;;;;;21.10;99.90;;;;;;4978875;28;19929;-64
2022/09/30 12:36:38;;;;;;;;;;;21.10;99.90;;;;;;4972251;28;20336;-58
2022/09/30 12:39:08;;;;;;;;;;;21.20;99.90;;;;;;4973505;28;19925;-61
2022/09/30 12:41:35;;;;;;;;;;;21.20;99.90;;;;;;4983474;28;19925;-62
2022/09/30 12:44:05;;;;;;;;;;;21.20;99.90;;;;;;4972318;28;19926;-62
2022/09/30 12:46:56;;;;;;;;;;;21.20;99.90;;;;;;4968654;28;20420;-61
2022/09/30 12:49:24;;;;;;;;;;;21.20;99.90;;;;;;4966523;28;19931;-61
2022/09/30 12:52:01;;;;;;;;;;;21.30;99.90;;;;;;4961597;28;19938;-64
2022/09/30 12:54:31;;;;;;;;;;;21.30;99.90;;;;;;4964521;28;19930;-63
2022/09/30 12:57:02;;;;;;;;;;;21.40;99.90;;;;;;4965794;28;19930;-63
2022/09/30 12:59:31;;;;;;;;;;;21.50;99.90;;;;;;4975169;28;19937;-61
2022/09/30 13:01:59;;;;;;;;;;;21.50;99.90;;;;;;4975262;28;20411;-63
2022/09/30 13:04:32;;;;;;;;;;;21.60;99.90;;;;;;4966975;28;20441;-64
2022/09/30 13:06:59;;;;;;;;;;;21.60;99.90;;;;;;4977952;28;20386;-64
2022/09/30 13:09:32;;;;;;;;;;;21.60;99.90;;;;;;4979238;28;19930;-63
2022/09/30 13:11:59;;;;;;;;;;;21.60;99.90;;;;;;4975558;28;19930;-63
2022/09/30 13:14:32;;;;;;;;;;;21.60;99.90;;;;;;4979730;28;19930;-63
2022/09/30 13:17:05;;;;;;;;;;;21.70;99.90;;;;;;4974609;28;19931;-63
2022/09/30 13:19:41;;;;;;;;;;;21.60;99.90;;;;;;4967927;28;20291;-62
2022/09/30 13:22:17;;;;;;;;;;;21.70;99.90;;;;;;4969852;28;19930;-62
2022/09/30 13:25:01;;;;;;;;;;;21.60;99.90;;;;;;4974014;28;19937;-64
2022/09/30 13:27:41;;;;;;;;;;;21.60;99.90;;;;;;4964779;28;19953;-65
2022/09/30 13:30:17;;;;;;;;;;;21.70;99.90;;;;;;4978931;28;20313;-62
2022/09/30 13:33:07;;;;;;;;;;;21.70;99.90;;;;;;4967681;28;19930;-60
2022/09/30 13:35:47;;;;;;;;;;;21.70;99.90;;;;;;4954342;28;19934;-63
2022/09/30 13:38:19;;;;;;;;;;;21.70;99.90;;;;;;4976569;28;19970;-62
2022/09/30 13:40:48;;;;;;;;;;;21.70;99.90;;;;;;4975622;28;19937;-60
2022/09/30 13:43:34;;;;;;;;;;;21.70;99.90;;;;;;4966885;28;19934;-63
2022/09/30 13:46:10;;;;;;;;;;;21.70;99.90;;;;;;4969347;28;20398;-60
2022/09/30 13:48:40;;;;;;;;;;;21.70;99.90;;;;;;4968666;28;19930;-63
2022/09/30 13:51:11;;;;;;;;;;;21.60;99.90;;;;;;4976297;28;19930;-63
2022/09/30 13:53:39;;;;;;;;;;;21.60;99.90;;;;;;4970484;28;19930;-63
2022/09/30 13:56:18;;;;;;;;;;;21.60;99.90;;;;;;4976694;28;19942;-63
2022/09/30 13:59:05;;;;;;;;;;;21.50;99.90;;;;;;4972581;28;19930;-62
2022/09/30 14:01:53;;;;;;;;;;;21.40;99.90;;;;;;4970767;28;20263;-64
2022/09/30 14:04:22;;;;;;;;;;;21.40;99.90;;;;;;4971040;28;19937;-59
2022/09/30 14:07:06;;;;;;;;;;;21.30;99.90;;;;;;4977574;28;19932;-62
2022/09/30 14:09:33;;;;;;;;;;;21.30;99.90;;;;;;4967784;28;19925;-64
2022/09/30 14:12:19;;;;;;;;;;;21.20;99.90;;;;;;4969770;28;19926;-63
2022/09/30 14:15:16;;;;;;;;;;;21.20;99.90;;;;;;4971329;28;19929;-61
2022/09/30 14:17:46;;;;;;;;;;;21.20;99.90;;;;;;4953556;28;19926;-62
2022/09/30 14:20:28;;;;;;;;;;;21.20;99.90;;;;;;4971867;28;19934;-62
2022/09/30 14:22:55;;;;;;;;;;;21.20;99.90;;;;;;4978162;28;19941;-64
2022/09/30 14:25:22;;;;;;;;;;;21.20;99.90;;;;;;4964967;28;19933;-60
2022/09/30 14:27:52;;;;;;;;;;;21.10;99.90;;;;;;4969872;28;19933;-63
2022/09/30 14:30:20;;;;;;;;;;;21.20;99.90;;;;;;4963508;28;19930;-64
2022/09/30 14:32:51;;;;;;;;;;;21.20;99.90;;;;;;4968734;28;19936;-63
2022/09/30 14:35:27;;;;;;;;;;;21.20;99.90;;;;;;4971475;28;19953;-64
2022/09/30 14:38:01;;;;;;;;;;;21.20;99.90;;;;;;4969826;28;19934;-63
2022/09/30 14:40:32;;;;;;;;;;;21.20;99.90;;;;;;4980413;28;19941;-62
2022/09/30 14:43:04;;;;;;;;;;;21.30;99.90;;;;;;4988244;28;19937;-62
2022/09/30 14:45:33;;;;;;;;;;;21.40;99.90;;;;;;4961309;28;19930;-63
2022/09/30 14:48:04;;;;;;;;;;;21.40;99.90;;;;;;4973786;28;19932;-64